Time;durP1;ratioP1;P1;durP2;ratioP2;P2;SDS_P1;SDS_P2;PMS_P1;PMS_P2;Temp;Humidity;BMP_temperature;BMP_pressure;BME280_temperature;BME280_humidity;BME280_pressure;Samples;Min_cycle;Max_cycle;Signal;HPM_P1;HPM_P2
2022/01/04 00:01:10;;;;;;;;;;;7.00;99.90;;;;;;5060199;28;20289;-62
2022/01/04 00:03:38;;;;;;;;;;;7.00;99.90;;;;;;5037863;28;19939;-62
2022/01/04 00:06:05;;;;;;;;;;;7.00;99.90;;;;;;5068828;28;19930;-65
2022/01/04 00:08:33;;;;;;;;;;;7.00;99.90;;;;;;5068593;28;19920;-64
2022/01/04 00:11:14;;;;;;;;;;;7.00;99.90;;;;;;5047340;28;19920;-66
2022/01/04 00:13:41;;;;;;;;;;;7.10;99.90;;;;;;5054588;28;19939;-66
2022/01/04 00:16:10;;;;;;;;;;;7.10;99.90;;;;;;5048560;28;19928;-65
2022/01/04 00:18:39;;;;;;;;;;;7.10;99.90;;;;;;5056748;28;20394;-66
2022/01/04 00:21:06;;;;;;;;;;;7.10;99.90;;;;;;5067944;28;19932;-62
2022/01/04 00:23:34;;;;;;;;;;;7.10;99.90;;;;;;5068526;28;20269;-61
2022/01/04 00:26:02;;;;;;;;;;;7.20;99.90;;;;;;5065242;28;19931;-62
2022/01/04 00:28:29;;;;;;;;;;;7.10;99.90;;;;;;5057270;28;19920;-62
2022/01/04 00:30:57;;;;;;;;;;;7.20;99.90;;;;;;5050628;28;19920;-65
2022/01/04 00:33:24;;;;;;;;;;;7.20;99.90;;;;;;5050203;28;19920;-66
2022/01/04 00:35:52;;;;;;;;;;;7.20;99.90;;;;;;5050662;28;19962;-65
2022/01/04 00:38:19;;;;;;;;;;;7.20;99.90;;;;;;5065861;28;19924;-62
2022/01/04 00:40:47;;;;;;;;;;;7.30;99.90;;;;;;5068261;28;19920;-66
2022/01/04 00:43:14;;;;;;;;;;;7.20;99.90;;;;;;5055851;28;19920;-64
2022/01/04 00:45:42;;;;;;;;;;;7.20;99.90;;;;;;5067884;28;19921;-61
2022/01/04 00:50:38;;;;;;;;;;;7.20;99.90;;;;;;5068421;28;19920;-61
2022/01/04 00:53:06;;;;;;;;;;;7.20;99.90;;;;;;5056541;28;19927;-61
2022/01/04 00:55:34;;;;;;;;;;;7.30;99.90;;;;;;5044920;28;19921;-64
2022/01/04 00:58:02;;;;;;;;;;;7.30;99.90;;;;;;5062617;28;19928;-61
2022/01/04 01:00:34;;;;;;;;;;;7.30;99.90;;;;;;5049940;28;19925;-62
2022/01/04 01:03:05;;;;;;;;;;;7.30;99.90;;;;;;5062763;28;19921;-61
2022/01/04 01:05:33;;;;;;;;;;;7.20;99.90;;;;;;5064823;28;19920;-62
2022/01/04 01:08:01;;;;;;;;;;;7.20;99.90;;;;;;5048934;28;20343;-62
2022/01/04 01:12:58;;;;;;;;;;;7.20;99.90;;;;;;5061679;28;19920;-62
2022/01/04 01:15:26;;;;;;;;;;;7.20;99.90;;;;;;5068334;28;19920;-61
2022/01/04 01:17:54;;;;;;;;;;;7.20;99.90;;;;;;5071684;28;19920;-61
2022/01/04 01:20:21;;;;;;;;;;;7.10;99.90;;;;;;5071694;28;19924;-61
2022/01/04 01:22:49;;;;;;;;;;;7.10;99.90;;;;;;5065623;28;20312;-61
2022/01/04 01:25:17;;;;;;;;;;;7.10;99.90;;;;;;5053898;28;19921;-61
2022/01/04 01:27:44;;;;;;;;;;;7.10;99.90;;;;;;5063454;28;19924;-61
2022/01/04 01:30:13;;;;;;;;;;;7.10;99.90;;;;;;5053313;28;19920;-61
2022/01/04 01:32:41;;;;;;;;;;;7.10;99.90;;;;;;5061100;28;19920;-61
2022/01/04 01:35:08;;;;;;;;;;;7.00;99.90;;;;;;5071087;28;19924;-60
2022/01/04 01:37:36;;;;;;;;;;;7.00;99.90;;;;;;5071578;28;19951;-61
2022/01/04 01:40:04;;;;;;;;;;;7.00;99.90;;;;;;5071056;28;19927;-60
2022/01/04 01:42:31;;;;;;;;;;;6.90;99.90;;;;;;5052763;28;19932;-61
2022/01/04 01:44:59;;;;;;;;;;;6.90;99.90;;;;;;5070714;28;19921;-61
2022/01/04 01:47:27;;;;;;;;;;;6.80;99.90;;;;;;5068965;28;19928;-62
2022/01/04 01:49:54;;;;;;;;;;;6.80;99.90;;;;;;5053243;28;19920;-61
2022/01/04 01:52:22;;;;;;;;;;;6.80;99.90;;;;;;5053477;28;19936;-61
2022/01/04 01:54:49;;;;;;;;;;;6.80;99.90;;;;;;5052639;28;19935;-61
2022/01/04 01:57:17;;;;;;;;;;;6.80;99.90;;;;;;5048499;28;19934;-60
2022/01/04 01:59:44;;;;;;;;;;;6.80;99.90;;;;;;5067625;28;19932;-61
2022/01/04 02:02:12;;;;;;;;;;;6.70;99.90;;;;;;5071049;28;19932;-62
2022/01/04 02:04:39;;;;;;;;;;;6.80;99.90;;;;;;5068497;28;19928;-62
2022/01/04 02:07:07;;;;;;;;;;;6.70;99.90;;;;;;5070701;28;19920;-63
2022/01/04 02:09:37;;;;;;;;;;;6.70;99.90;;;;;;5052353;28;19920;-62
2022/01/04 02:12:05;;;;;;;;;;;6.70;99.90;;;;;;5068411;28;19928;-66
2022/01/04 02:14:33;;;;;;;;;;;6.60;99.90;;;;;;5081063;28;19924;-66
2022/01/04 02:17:00;;;;;;;;;;;6.60;99.90;;;;;;5070815;28;19921;-65
2022/01/04 02:19:28;;;;;;;;;;;6.60;99.90;;;;;;5070352;28;19928;-66
2022/01/04 02:21:56;;;;;;;;;;;6.60;99.90;;;;;;5069496;28;19928;-66
2022/01/04 02:24:23;;;;;;;;;;;6.50;99.90;;;;;;5068089;28;19928;-65
2022/01/04 02:26:51;;;;;;;;;;;6.50;99.90;;;;;;5070339;28;19920;-66
2022/01/04 02:29:18;;;;;;;;;;;6.50;99.90;;;;;;5051558;28;20257;-65
2022/01/04 02:31:46;;;;;;;;;;;6.60;99.90;;;;;;5061356;28;19921;-65
2022/01/04 02:34:13;;;;;;;;;;;6.60;99.90;;;;;;5052602;28;19928;-66
2022/01/04 02:36:41;;;;;;;;;;;6.60;99.90;;;;;;5064899;28;19920;-66
2022/01/04 02:39:08;;;;;;;;;;;6.50;99.90;;;;;;5051851;28;19928;-66
2022/01/04 02:41:35;;;;;;;;;;;6.50;99.90;;;;;;5073576;28;19920;-66
2022/01/04 02:44:04;;;;;;;;;;;6.50;99.90;;;;;;5055953;28;20303;-66
2022/01/04 02:46:31;;;;;;;;;;;6.50;99.90;;;;;;5071463;28;19927;-65
2022/01/04 02:48:59;;;;;;;;;;;6.60;99.90;;;;;;5064835;28;20291;-66
2022/01/04 02:51:26;;;;;;;;;;;6.50;99.90;;;;;;5072990;28;20300;-61
2022/01/04 02:53:54;;;;;;;;;;;6.50;99.90;;;;;;5053557;28;19927;-61
2022/01/04 02:56:21;;;;;;;;;;;6.50;99.90;;;;;;5073392;28;19921;-63
2022/01/04 02:58:48;;;;;;;;;;;6.40;99.90;;;;;;5072545;28;19927;-61
2022/01/04 03:01:16;;;;;;;;;;;6.40;99.90;;;;;;5064257;28;20396;-61
2022/01/04 03:03:44;;;;;;;;;;;6.30;99.90;;;;;;5053418;28;19921;-61
2022/01/04 03:06:14;;;;;;;;;;;6.20;99.90;;;;;;5050479;28;20303;-62
2022/01/04 03:08:42;;;;;;;;;;;6.20;99.90;;;;;;5073134;28;19920;-62
2022/01/04 03:11:09;;;;;;;;;;;6.10;99.90;;;;;;5073158;28;19927;-61
2022/01/04 03:13:37;;;;;;;;;;;6.00;99.90;;;;;;5059529;28;19921;-61
2022/01/04 03:16:04;;;;;;;;;;;6.00;99.90;;;;;;5052982;28;19931;-61
2022/01/04 03:18:32;;;;;;;;;;;6.00;99.90;;;;;;5056331;28;19935;-61
2022/01/04 03:20:59;;;;;;;;;;;5.90;99.90;;;;;;5056324;28;20296;-61
2022/01/04 03:23:26;;;;;;;;;;;5.90;99.90;;;;;;5053228;28;19928;-61
2022/01/04 03:25:54;;;;;;;;;;;5.90;99.90;;;;;;5018402;28;19939;-61
2022/01/04 03:28:23;;;;;;;;;;;5.90;99.90;;;;;;5034928;28;19928;-61
2022/01/04 03:30:50;;;;;;;;;;;5.80;99.90;;;;;;5053016;28;20356;-61
2022/01/04 03:33:18;;;;;;;;;;;5.80;99.90;;;;;;5052805;28;19921;-63
2022/01/04 03:35:46;;;;;;;;;;;5.80;99.90;;;;;;5052578;28;20427;-61
2022/01/04 03:38:13;;;;;;;;;;;5.80;99.90;;;;;;5051747;28;19931;-61
2022/01/04 03:40:40;;;;;;;;;;;5.80;99.90;;;;;;5034976;28;19921;-62
2022/01/04 03:43:08;;;;;;;;;;;5.70;99.90;;;;;;5052549;28;20292;-61
2022/01/04 03:45:35;;;;;;;;;;;5.60;99.90;;;;;;5034610;28;19921;-60
2022/01/04 03:48:03;;;;;;;;;;;5.50;99.90;;;;;;5051349;28;20368;-62
2022/01/04 03:50:31;;;;;;;;;;;5.50;99.90;;;;;;5052417;28;19929;-63
2022/01/04 03:52:58;;;;;;;;;;;5.40;99.90;;;;;;5034733;28;19921;-61
2022/01/04 03:55:26;;;;;;;;;;;5.30;99.90;;;;;;5052149;28;19927;-63
2022/01/04 03:57:53;;;;;;;;;;;5.10;99.90;;;;;;5052192;28;19928;-62
2022/01/04 04:00:20;;;;;;;;;;;5.00;99.90;;;;;;5052761;28;19921;-63
2022/01/04 04:02:48;;;;;;;;;;;4.90;99.90;;;;;;5052356;28;19928;-63
2022/01/04 04:05:18;;;;;;;;;;;4.80;99.90;;;;;;5052068;28;19920;-62
2022/01/04 04:07:46;;;;;;;;;;;4.70;99.90;;;;;;5052172;28;19920;-63
2022/01/04 04:10:13;;;;;;;;;;;4.60;99.90;;;;;;5052168;28;19931;-63
2022/01/04 04:12:41;;;;;;;;;;;4.50;99.90;;;;;;5051923;28;19920;-65
2022/01/04 04:15:09;;;;;;;;;;;4.50;99.90;;;;;;5052453;28;19921;-65
2022/01/04 04:17:38;;;;;;;;;;;4.40;99.90;;;;;;5052037;28;20396;-65
2022/01/04 04:20:06;;;;;;;;;;;4.40;99.90;;;;;;5052094;28;20304;-63
2022/01/04 04:22:33;;;;;;;;;;;4.40;99.90;;;;;;5052049;28;19924;-62
2022/01/04 04:25:01;;;;;;;;;;;4.30;99.90;;;;;;5034381;28;19927;-64
2022/01/04 04:27:29;;;;;;;;;;;4.20;99.90;;;;;;5051913;28;19929;-63
2022/01/04 04:29:56;;;;;;;;;;;4.20;99.90;;;;;;5052209;28;20194;-62
2022/01/04 04:32:24;;;;;;;;;;;4.10;99.90;;;;;;5052076;28;19944;-62
2022/01/04 04:34:51;;;;;;;;;;;4.10;99.90;;;;;;5051878;28;19921;-65
2022/01/04 04:37:18;;;;;;;;;;;4.10;99.90;;;;;;5052050;28;19933;-66
2022/01/04 04:39:46;;;;;;;;;;;4.10;99.90;;;;;;5051788;28;19921;-65
2022/01/04 04:42:13;;;;;;;;;;;4.00;99.90;;;;;;5051670;28;19932;-67
2022/01/04 04:44:41;;;;;;;;;;;4.00;99.90;;;;;;5051762;28;19921;-67
2022/01/04 04:47:08;;;;;;;;;;;4.00;99.90;;;;;;5051650;28;19920;-68
2022/01/04 04:49:36;;;;;;;;;;;4.00;99.90;;;;;;5034066;28;19920;-67
2022/01/04 04:52:04;;;;;;;;;;;4.00;99.90;;;;;;5036971;28;19921;-67
2022/01/04 04:54:34;;;;;;;;;;;4.00;99.90;;;;;;5055510;28;19939;-66
2022/01/04 04:57:01;;;;;;;;;;;4.00;99.90;;;;;;5055835;28;19921;-67
2022/01/04 04:59:29;;;;;;;;;;;4.00;99.90;;;;;;5055781;28;20303;-67
2022/01/04 05:01:57;;;;;;;;;;;3.90;99.90;;;;;;5055701;28;19927;-62
2022/01/04 05:04:25;;;;;;;;;;;3.90;99.90;;;;;;5055397;28;19928;-67
2022/01/04 05:06:53;;;;;;;;;;;3.90;99.90;;;;;;5055626;28;19920;-67
2022/01/04 05:09:21;;;;;;;;;;;3.80;99.90;;;;;;5055339;28;19928;-67
2022/01/04 05:11:48;;;;;;;;;;;3.70;99.90;;;;;;5037445;28;19920;-67
2022/01/04 05:14:15;;;;;;;;;;;3.70;99.90;;;;;;5055358;28;19920;-67
2022/01/04 05:16:43;;;;;;;;;;;3.60;99.90;;;;;;5055666;28;19920;-67
2022/01/04 05:19:10;;;;;;;;;;;3.60;99.90;;;;;;5055290;28;19921;-67
2022/01/04 05:21:38;;;;;;;;;;;3.60;99.90;;;;;;5055203;28;19947;-69
2022/01/04 05:24:06;;;;;;;;;;;3.60;99.90;;;;;;5055163;28;19920;-67
2022/01/04 05:26:33;;;;;;;;;;;3.50;99.90;;;;;;5037720;28;19920;-67
2022/01/04 05:29:01;;;;;;;;;;;3.50;99.90;;;;;;5055390;28;20269;-68
2022/01/04 05:31:29;;;;;;;;;;;3.50;99.90;;;;;;5055144;28;19921;-61
2022/01/04 05:33:57;;;;;;;;;;;3.50;99.90;;;;;;5054971;28;20418;-63
2022/01/04 05:36:24;;;;;;;;;;;3.50;99.90;;;;;;5054742;28;19927;-61
2022/01/04 05:38:52;;;;;;;;;;;3.40;99.90;;;;;;5037011;28;19928;-63
2022/01/04 05:41:21;;;;;;;;;;;3.50;99.90;;;;;;5054710;28;19920;-62
2022/01/04 05:43:49;;;;;;;;;;;3.50;99.90;;;;;;5037001;28;19927;-63
2022/01/04 05:46:16;;;;;;;;;;;3.40;99.90;;;;;;5070441;28;19927;-62
2022/01/04 05:48:44;;;;;;;;;;;3.40;99.90;;;;;;5044505;28;19924;-64
2022/01/04 05:51:12;;;;;;;;;;;3.40;99.90;;;;;;5071151;28;19920;-63
2022/01/04 05:53:39;;;;;;;;;;;3.30;99.90;;;;;;5070971;28;19921;-63
2022/01/04 05:56:07;;;;;;;;;;;3.30;99.90;;;;;;5071259;28;20396;-65
2022/01/04 05:58:34;;;;;;;;;;;3.30;99.90;;;;;;5070902;28;19921;-66
2022/01/04 06:01:01;;;;;;;;;;;3.30;99.90;;;;;;5070512;28;20293;-68
2022/01/04 06:03:29;;;;;;;;;;;3.30;99.90;;;;;;5059777;28;20292;-68
2022/01/04 06:05:59;;;;;;;;;;;3.20;99.90;;;;;;5067612;28;19920;-67
2022/01/04 06:08:33;;;;;;;;;;;3.20;99.90;;;;;;5049109;28;19920;-68
2022/01/04 06:11:01;;;;;;;;;;;3.20;99.90;;;;;;5033548;28;20368;-68
2022/01/04 06:16:15;;;;;;;;;;;3.10;99.90;;;;;;5067303;28;19920;-66
2022/01/04 06:18:44;;;;;;;;;;;3.10;99.90;;;;;;5020783;28;19924;-63
2022/01/04 06:21:23;;;;;;;;;;;3.00;99.90;;;;;;5048196;28;19921;-66
2022/01/04 06:23:51;;;;;;;;;;;3.00;99.90;;;;;;5061488;28;20299;-66
2022/01/04 06:26:30;;;;;;;;;;;3.00;99.90;;;;;;5070730;28;19920;-65
2022/01/04 06:29:01;;;;;;;;;;;3.00;99.90;;;;;;5070135;28;20230;-67
2022/01/04 06:31:31;;;;;;;;;;;3.00;99.90;;;;;;5036738;28;19920;-67
2022/01/04 06:34:03;;;;;;;;;;;3.00;99.90;;;;;;5069052;28;19935;-66
2022/01/04 06:36:36;;;;;;;;;;;3.00;99.90;;;;;;5070255;28;19920;-66
2022/01/04 06:39:04;;;;;;;;;;;2.90;99.90;;;;;;5052158;28;19921;-67
2022/01/04 06:41:41;;;;;;;;;;;2.90;99.90;;;;;;5070140;28;19920;-68
2022/01/04 06:44:17;;;;;;;;;;;2.90;99.90;;;;;;5069946;28;19920;-66
2022/01/04 06:46:45;;;;;;;;;;;2.90;99.90;;;;;;5068698;28;19951;-63
2022/01/04 06:49:14;;;;;;;;;;;2.90;99.90;;;;;;5052284;28;19925;-66
2022/01/04 06:51:42;;;;;;;;;;;2.90;99.90;;;;;;5046818;28;19921;-68
2022/01/04 06:54:11;;;;;;;;;;;2.90;99.90;;;;;;5059703;28;19932;-67
2022/01/04 06:56:39;;;;;;;;;;;2.90;99.90;;;;;;5066834;28;19924;-66
2022/01/04 06:59:07;;;;;;;;;;;2.90;99.90;;;;;;5048590;28;19928;-63
2022/01/04 07:01:38;;;;;;;;;;;2.90;99.90;;;;;;5048919;28;19927;-62
2022/01/04 07:04:09;;;;;;;;;;;2.90;99.90;;;;;;5054747;28;19931;-63
2022/01/04 07:06:48;;;;;;;;;;;2.80;99.90;;;;;;5046388;28;19927;-63
2022/01/04 07:09:16;;;;;;;;;;;2.80;99.90;;;;;;5047988;28;19924;-65
2022/01/04 07:11:52;;;;;;;;;;;2.80;99.90;;;;;;5050430;28;19924;-64
2022/01/04 07:14:26;;;;;;;;;;;2.80;99.90;;;;;;5064842;28;20388;-64
2022/01/04 07:17:00;;;;;;;;;;;2.80;99.90;;;;;;5066169;28;19927;-61
2022/01/04 07:19:28;;;;;;;;;;;2.80;99.90;;;;;;5037793;28;19921;-62
2022/01/04 07:22:10;;;;;;;;;;;2.80;99.90;;;;;;5046788;28;19927;-63
2022/01/04 07:24:39;;;;;;;;;;;2.80;99.90;;;;;;5058510;28;20311;-64
2022/01/04 07:27:11;;;;;;;;;;;2.70;99.90;;;;;;5028468;28;19927;-62
2022/01/04 07:29:38;;;;;;;;;;;2.70;99.90;;;;;;5049984;28;19920;-61
2022/01/04 07:32:21;;;;;;;;;;;2.70;99.90;;;;;;5066178;28;19921;-62
2022/01/04 07:34:56;;;;;;;;;;;2.70;99.90;;;;;;5052388;28;20268;-66
2022/01/04 07:37:24;;;;;;;;;;;2.70;99.90;;;;;;5051858;28;19924;-66
2022/01/04 07:39:52;;;;;;;;;;;2.60;99.90;;;;;;5069308;28;19924;-64
2022/01/04 07:42:26;;;;;;;;;;;2.60;99.90;;;;;;5069293;28;19921;-66
2022/01/04 07:44:54;;;;;;;;;;;2.60;99.90;;;;;;5068792;28;19925;-62
2022/01/04 07:47:26;;;;;;;;;;;2.50;99.90;;;;;;5068898;28;19928;-65
2022/01/04 07:49:55;;;;;;;;;;;2.50;99.90;;;;;;5053985;28;19932;-67
2022/01/04 07:52:23;;;;;;;;;;;2.50;99.90;;;;;;5048982;28;20300;-68
2022/01/04 07:54:51;;;;;;;;;;;2.50;99.90;;;;;;5066941;28;19930;-66
2022/01/04 07:57:42;;;;;;;;;;;2.40;99.90;;;;;;5049429;28;19921;-68
2022/01/04 08:00:16;;;;;;;;;;;2.40;99.90;;;;;;5051102;28;19920;-68
2022/01/04 08:02:50;;;;;;;;;;;2.30;99.90;;;;;;5065096;28;19920;-64
2022/01/04 08:05:18;;;;;;;;;;;2.30;99.90;;;;;;5048467;28;20462;-67
2022/01/04 08:08:18;;;;;;;;;;;2.20;99.90;;;;;;5051782;28;19924;-62
2022/01/04 08:11:08;;;;;;;;;;;2.20;99.90;;;;;;5042980;28;20407;-66
2022/01/04 08:13:36;;;;;;;;;;;2.20;99.90;;;;;;5035426;28;20379;-66
2022/01/04 08:16:06;;;;;;;;;;;2.10;99.90;;;;;;5047720;28;19924;-61
2022/01/04 08:18:34;;;;;;;;;;;2.10;99.90;;;;;;5063149;28;19920;-63
2022/01/04 08:21:23;;;;;;;;;;;2.00;99.90;;;;;;5057781;28;19921;-64
2022/01/04 08:23:50;;;;;;;;;;;2.00;99.90;;;;;;5055134;28;19921;-62
2022/01/04 08:26:19;;;;;;;;;;;1.90;99.90;;;;;;5047057;28;19943;-63
2022/01/04 08:28:58;;;;;;;;;;;1.90;99.90;;;;;;5064817;28;20125;-62
2022/01/04 08:31:30;;;;;;;;;;;1.90;99.90;;;;;;5065294;28;20221;-65
2022/01/04 08:33:59;;;;;;;;;;;1.90;99.90;;;;;;5059892;28;19924;-67
2022/01/04 08:36:30;;;;;;;;;;;1.90;99.90;;;;;;5044716;28;19935;-64
2022/01/04 08:38:59;;;;;;;;;;;1.90;99.90;;;;;;5032569;28;19932;-62
2022/01/04 08:41:27;;;;;;;;;;;1.80;99.90;;;;;;5030773;28;19927;-61
2022/01/04 08:44:09;;;;;;;;;;;1.80;99.90;;;;;;5042473;28;19920;-62
2022/01/04 08:46:47;;;;;;;;;;;1.70;99.90;;;;;;5050106;28;19924;-61
2022/01/04 08:49:15;;;;;;;;;;;1.60;99.90;;;;;;5062731;28;19931;-61
2022/01/04 08:51:44;;;;;;;;;;;1.60;99.90;;;;;;5047066;28;20031;-61
2022/01/04 08:54:14;;;;;;;;;;;1.60;99.90;;;;;;5060887;28;19939;-63
2022/01/04 08:56:43;;;;;;;;;;;1.50;99.90;;;;;;5068069;28;19927;-61
2022/01/04 08:59:13;;;;;;;;;;;1.50;99.90;;;;;;5067834;28;19924;-61
2022/01/04 09:01:44;;;;;;;;;;;1.40;99.90;;;;;;5068223;28;20313;-61
2022/01/04 09:04:12;;;;;;;;;;;1.40;99.90;;;;;;5063902;28;19924;-61
2022/01/04 09:06:40;;;;;;;;;;;1.30;99.90;;;;;;5048081;28;20427;-61
2022/01/04 09:09:08;;;;;;;;;;;1.30;99.90;;;;;;5065259;28;19924;-62
2022/01/04 09:11:35;;;;;;;;;;;1.30;99.90;;;;;;5050349;28;19920;-61
2022/01/04 09:19:24;;;;;;;;;;;1.20;99.90;;;;;;5045390;28;19932;-62
2022/01/04 09:21:53;;;;;;;;;;;1.20;99.90;;;;;;5048266;28;19920;-61
2022/01/04 09:24:20;;;;;;;;;;;1.20;99.90;;;;;;5060297;28;19920;-62
2022/01/04 09:26:48;;;;;;;;;;;1.20;99.90;;;;;;5068096;28;19927;-61
2022/01/04 09:29:19;;;;;;;;;;;1.20;99.90;;;;;;5067584;28;19950;-62
2022/01/04 09:31:50;;;;;;;;;;;1.10;99.90;;;;;;5067962;28;19924;-61
2022/01/04 09:34:18;;;;;;;;;;;1.10;99.90;;;;;;5061016;28;20307;-62
2022/01/04 09:36:47;;;;;;;;;;;1.10;99.90;;;;;;5045605;28;19924;-61
2022/01/04 09:39:25;;;;;;;;;;;1.10;99.90;;;;;;5068320;28;20360;-64
2022/01/04 09:41:59;;;;;;;;;;;1.10;99.90;;;;;;5070986;28;19920;-66
2022/01/04 09:44:27;;;;;;;;;;;1.10;99.90;;;;;;5071083;28;19932;-67
2022/01/04 09:47:24;;;;;;;;;;;1.10;99.90;;;;;;5055972;28;19928;-67
2022/01/04 09:49:52;;;;;;;;;;;1.10;99.90;;;;;;5065022;28;20240;-67
2022/01/04 09:52:23;;;;;;;;;;;1.10;99.90;;;;;;5033362;28;19921;-66
2022/01/04 09:55:03;;;;;;;;;;;1.10;99.90;;;;;;5049982;28;20303;-64
2022/01/04 09:57:33;;;;;;;;;;;1.10;99.90;;;;;;5067488;28;20402;-66
2022/01/04 10:00:01;;;;;;;;;;;1.10;99.90;;;;;;5067568;28;19927;-63
2022/01/04 10:02:35;;;;;;;;;;;1.10;99.90;;;;;;5065958;28;20406;-62
2022/01/04 10:05:15;;;;;;;;;;;1.10;99.90;;;;;;5042002;28;19931;-62
2022/01/04 10:07:47;;;;;;;;;;;1.20;99.90;;;;;;5034988;28;19920;-61
2022/01/04 10:10:17;;;;;;;;;;;1.20;99.90;;;;;;5026593;28;19920;-61
2022/01/04 10:12:59;;;;;;;;;;;1.30;99.90;;;;;;5048773;28;19920;-63
2022/01/04 10:15:48;;;;;;;;;;;1.40;99.90;;;;;;5055514;28;19928;-62
2022/01/04 10:18:18;;;;;;;;;;;1.50;99.90;;;;;;5070624;28;20299;-67
2022/01/04 10:20:47;;;;;;;;;;;1.60;99.90;;;;;;5059045;28;19921;-66
2022/01/04 10:23:16;;;;;;;;;;;1.70;99.90;;;;;;5054847;28;19927;-67
2022/01/04 10:25:47;;;;;;;;;;;1.80;99.90;;;;;;5070733;28;19920;-67
2022/01/04 10:28:30;;;;;;;;;;;1.80;99.90;;;;;;5052355;28;20327;-66
2022/01/04 10:31:00;;;;;;;;;;;1.90;99.90;;;;;;5070680;28;19927;-65
2022/01/04 10:33:31;;;;;;;;;;;1.90;99.90;;;;;;5052665;28;19921;-65
2022/01/04 10:36:05;;;;;;;;;;;2.00;99.90;;;;;;5058072;28;19927;-63
2022/01/04 10:38:35;;;;;;;;;;;2.10;99.90;;;;;;5044979;28;19970;-68
2022/01/04 10:41:04;;;;;;;;;;;2.10;99.90;;;;;;5052470;28;19920;-66
2022/01/04 10:43:55;;;;;;;;;;;2.20;99.90;;;;;;5053970;28;19920;-65
2022/01/04 10:46:53;;;;;;;;;;;2.30;99.90;;;;;;5070222;28;20264;-66
2022/01/04 10:49:22;;;;;;;;;;;2.30;99.90;;;;;;5054323;28;19921;-66
2022/01/04 10:52:22;;;;;;;;;;;2.40;99.90;;;;;;5051181;28;19932;-64
2022/01/04 10:55:34;;;;;;;;;;;2.50;99.90;;;;;;5010112;28;19928;-65
2022/01/04 10:58:06;;;;;;;;;;;2.60;99.90;;;;;;5057683;28;19928;-69
2022/01/04 11:00:58;;;;;;;;;;;2.60;99.90;;;;;;5069588;28;19921;-65
2022/01/04 11:03:31;;;;;;;;;;;2.80;99.90;;;;;;5069694;28;19920;-66
2022/01/04 11:06:13;;;;;;;;;;;2.80;99.90;;;;;;5058079;28;19924;-62
2022/01/04 11:08:41;;;;;;;;;;;2.90;99.90;;;;;;5062507;28;19927;-61
2022/01/04 11:11:09;;;;;;;;;;;3.00;99.90;;;;;;5051507;28;20391;-64
2022/01/04 11:13:37;;;;;;;;;;;3.10;99.90;;;;;;5069848;28;19921;-68
2022/01/04 11:16:06;;;;;;;;;;;3.30;99.90;;;;;;5069550;28;19924;-63
2022/01/04 11:18:34;;;;;;;;;;;3.40;99.90;;;;;;5051360;28;19927;-68
2022/01/04 11:21:02;;;;;;;;;;;3.50;99.90;;;;;;5059304;28;19921;-68
2022/01/04 11:23:30;;;;;;;;;;;3.70;99.90;;;;;;5055124;28;20303;-68
2022/01/04 11:25:58;;;;;;;;;;;3.80;99.90;;;;;;5069464;28;19948;-68
2022/01/04 11:28:26;;;;;;;;;;;4.00;99.90;;;;;;5068336;28;19927;-68
2022/01/04 11:31:12;;;;;;;;;;;4.20;99.90;;;;;;5069510;28;20083;-63
2022/01/04 11:33:46;;;;;;;;;;;4.40;99.90;;;;;;5069022;28;19920;-64
2022/01/04 11:36:14;;;;;;;;;;;4.50;99.90;;;;;;5058079;28;19921;-62
2022/01/04 11:38:42;;;;;;;;;;;4.70;99.90;;;;;;5077571;28;19920;-61
2022/01/04 11:41:24;;;;;;;;;;;4.80;99.90;;;;;;5050931;28;19920;-63
2022/01/04 11:43:52;;;;;;;;;;;5.00;99.90;;;;;;5068825;28;19924;-61
2022/01/04 11:46:33;;;;;;;;;;;5.20;99.90;;;;;;5069109;28;19931;-63
2022/01/04 11:49:08;;;;;;;;;;;5.30;99.90;;;;;;5068993;28;19920;-62
2022/01/04 11:51:37;;;;;;;;;;;5.50;99.90;;;;;;5055279;28;19931;-65
2022/01/04 11:54:21;;;;;;;;;;;5.40;99.90;;;;;;5059195;28;19924;-65
2022/01/04 11:56:52;;;;;;;;;;;5.50;99.90;;;;;;5069012;28;20287;-63
2022/01/04 11:59:31;;;;;;;;;;;5.60;99.90;;;;;;5068571;28;19920;-64
2022/01/04 12:02:18;;;;;;;;;;;5.80;99.90;;;;;;5051020;28;20175;-60
2022/01/04 12:04:50;;;;;;;;;;;6.10;99.90;;;;;;5050571;28;19927;-61
2022/01/04 12:07:36;;;;;;;;;;;6.40;99.90;;;;;;5051428;28;19924;-62
2022/01/04 12:10:18;;;;;;;;;;;6.60;99.90;;;;;;5069179;28;20551;-61
2022/01/04 12:12:58;;;;;;;;;;;6.90;99.90;;;;;;5065057;28;19931;-62
2022/01/04 12:15:34;;;;;;;;;;;7.20;99.90;;;;;;5047598;28;19924;-61
2022/01/04 12:18:04;;;;;;;;;;;7.30;99.90;;;;;;5047402;28;20323;-63
2022/01/04 12:20:44;;;;;;;;;;;7.30;99.90;;;;;;5062712;28;19947;-62
2022/01/04 12:23:26;;;;;;;;;;;7.30;99.90;;;;;;5051319;28;19935;-62
2022/01/04 12:26:06;;;;;;;;;;;7.40;99.90;;;;;;5068735;28;19928;-61
2022/01/04 12:29:06;;;;;;;;;;;7.60;99.90;;;;;;5068134;28;19920;-62
2022/01/04 12:31:35;;;;;;;;;;;7.80;98.70;;;;;;5050651;28;19924;-62
2022/01/04 12:34:23;;;;;;;;;;;7.90;96.80;;;;;;5068206;28;19924;-62
2022/01/04 12:36:50;;;;;;;;;;;7.90;95.00;;;;;;5055525;28;20407;-61
2022/01/04 12:39:20;;;;;;;;;;;7.70;94.20;;;;;;5066284;28;19935;-61
2022/01/04 12:41:51;;;;;;;;;;;7.50;94.80;;;;;;5056604;28;20326;-61
2022/01/04 12:44:23;;;;;;;;;;;7.40;93.60;;;;;;5060284;28;19931;-60
2022/01/04 12:46:51;;;;;;;;;;;7.30;94.30;;;;;;5047671;28;20403;-60
2022/01/04 12:49:20;;;;;;;;;;;7.30;95.80;;;;;;5065887;28;19935;-60
2022/01/04 12:51:50;;;;;;;;;;;7.30;94.10;;;;;;5056905;28;19925;-62
2022/01/04 12:54:19;;;;;;;;;;;7.10;92.40;;;;;;5059782;28;20082;-62
2022/01/04 12:57:00;;;;;;;;;;;6.80;91.50;;;;;;5050384;28;19921;-63
2022/01/04 12:59:29;;;;;;;;;;;6.50;91.00;;;;;;5050304;28;19927;-60
2022/01/04 13:02:01;;;;;;;;;;;6.30;92.90;;;;;;5068027;28;19927;-61
2022/01/04 13:04:32;;;;;;;;;;;6.20;93.80;;;;;;5068075;28;20280;-61
2022/01/04 13:07:01;;;;;;;;;;;6.10;93.60;;;;;;5049743;28;20091;-62
2022/01/04 13:09:33;;;;;;;;;;;6.10;93.50;;;;;;5068177;28;19924;-64
2022/01/04 13:12:01;;;;;;;;;;;6.20;93.50;;;;;;5069451;28;19924;-64
2022/01/04 13:14:32;;;;;;;;;;;6.20;93.40;;;;;;5070499;28;20430;-65
2022/01/04 13:17:04;;;;;;;;;;;6.30;93.70;;;;;;5072206;28;19920;-63
2022/01/04 13:19:32;;;;;;;;;;;6.50;94.20;;;;;;5071664;28;20307;-64
2022/01/04 13:22:00;;;;;;;;;;;6.70;93.70;;;;;;5059874;28;19931;-64
2022/01/04 13:24:28;;;;;;;;;;;6.90;94.00;;;;;;5051415;28;19920;-64
2022/01/04 13:27:16;;;;;;;;;;;7.30;92.70;;;;;;5051626;28;20288;-62
2022/01/04 13:29:47;;;;;;;;;;;7.50;92.90;;;;;;5051920;28;19920;-65
2022/01/04 13:32:15;;;;;;;;;;;7.90;90.70;;;;;;5052180;28;19920;-60
2022/01/04 13:34:43;;;;;;;;;;;8.10;92.00;;;;;;5031934;28;20083;-61
2022/01/04 13:37:11;;;;;;;;;;;8.40;90.50;;;;;;5041266;28;19921;-63
2022/01/04 13:39:38;;;;;;;;;;;8.70;90.20;;;;;;5071560;28;19991;-61
2022/01/04 13:42:25;;;;;;;;;;;8.90;86.90;;;;;;5071512;28;20399;-61
2022/01/04 13:44:54;;;;;;;;;;;9.00;84.50;;;;;;5071065;28;20483;-61
2022/01/04 13:47:22;;;;;;;;;;;9.20;84.80;;;;;;5071261;28;19921;-61
2022/01/04 13:49:49;;;;;;;;;;;9.20;83.40;;;;;;5053505;28;19924;-64
2022/01/04 13:52:17;;;;;;;;;;;9.20;81.60;;;;;;5041214;28;20384;-61
2022/01/04 13:54:44;;;;;;;;;;;9.10;83.20;;;;;;5081489;28;20175;-60
2022/01/04 13:57:14;;;;;;;;;;;9.20;82.20;;;;;;5071175;28;19921;-60
2022/01/04 13:59:43;;;;;;;;;;;9.20;82.30;;;;;;5053596;28;20241;-61
2022/01/04 14:02:26;;;;;;;;;;;9.30;81.20;;;;;;5053017;28;19924;-60
2022/01/04 14:05:13;;;;;;;;;;;9.30;82.60;;;;;;5051151;28;20337;-63
2022/01/04 14:07:41;;;;;;;;;;;9.40;83.00;;;;;;5039137;28;19927;-63
2022/01/04 14:10:12;;;;;;;;;;;9.50;82.30;;;;;;5051100;28;19946;-62
2022/01/04 14:12:42;;;;;;;;;;;9.50;78.90;;;;;;5052930;28;20391;-62
2022/01/04 14:15:10;;;;;;;;;;;9.00;75.70;;;;;;5069122;28;19924;-60
2022/01/04 14:17:39;;;;;;;;;;;8.50;76.00;;;;;;5070633;28;19927;-62
2022/01/04 14:20:10;;;;;;;;;;;7.90;78.70;;;;;;5020334;28;19943;-61
2022/01/04 14:22:38;;;;;;;;;;;7.30;81.20;;;;;;5032428;28;19921;-62
2022/01/04 14:25:09;;;;;;;;;;;6.80;83.20;;;;;;5068205;28;20284;-64
2022/01/04 14:27:41;;;;;;;;;;;6.40;85.70;;;;;;5053318;28;19939;-62
2022/01/04 14:30:13;;;;;;;;;;;6.00;90.10;;;;;;5070808;28;19928;-66
2022/01/04 14:32:41;;;;;;;;;;;5.80;90.80;;;;;;5052929;28;19943;-66
2022/01/04 14:35:14;;;;;;;;;;;5.60;91.20;;;;;;5070352;28;19921;-66
2022/01/04 14:37:43;;;;;;;;;;;5.40;91.70;;;;;;5061872;28;19920;-63
2022/01/04 14:40:12;;;;;;;;;;;5.20;92.20;;;;;;5069473;28;20372;-66
2022/01/04 14:42:40;;;;;;;;;;;5.10;92.20;;;;;;5070076;28;19924;-66
2022/01/04 14:45:08;;;;;;;;;;;5.10;93.40;;;;;;5069682;28;19927;-68
2022/01/04 14:47:35;;;;;;;;;;;5.00;93.60;;;;;;5070190;28;19924;-67
2022/01/04 14:50:03;;;;;;;;;;;4.90;93.60;;;;;;5052488;28;19928;-66
2022/01/04 14:52:31;;;;;;;;;;;4.80;94.10;;;;;;5042306;28;19932;-67
2022/01/04 14:54:58;;;;;;;;;;;4.80;94.10;;;;;;5066652;28;19931;-64
2022/01/04 14:57:27;;;;;;;;;;;4.70;94.30;;;;;;5070009;28;19924;-65
2022/01/04 14:59:56;;;;;;;;;;;4.60;94.80;;;;;;5035446;28;19931;-64
2022/01/04 15:02:24;;;;;;;;;;;4.60;95.00;;;;;;5070034;28;19920;-61
2022/01/04 15:04:53;;;;;;;;;;;4.50;95.00;;;;;;5069563;28;19927;-61